This is the latest recevied weather packets stored in our database for station/object E7HQ-1. If no packets are shown the sender has not sent any weather packets the latest 10 day(s).
| Time | Temp. | Humidity | Pressure | Rain* | Wind** | Luminosity | Snow |
|---|---|---|---|---|---|---|---|
| 1777725828 | 16.11° C | 33% | 1031.7 hPa | - | - | - | - |
| 1777724928 | 17.22° C | 31% | 1031.8 hPa | - | - | - | - |
| 1777724028 | 15.56° C | 35% | 1032.1 hPa | - | - | - | - |
| 1777723128 | 16.67° C | 31% | 1031.9 hPa | - | - | - | - |
| 1777722227 | 17.78° C | 30% | 1032 hPa | - | - | - | - |
| 1777722121 | 17.78° C | 30% | 1032 hPa | - | - | - | - |
| 1777721221 | 16.67° C | 30% | 1032.1 hPa | - | - | - | - |
| 1777720320 | 16.67° C | 33% | 1032.2 hPa | - | - | - | - |
| 1777719420 | 16.67° C | 32% | 1032.3 hPa | - | - | - | - |
| 1777718520 | 17.22° C | 31% | 1032.3 hPa | - | - | - | - |
| 1777717620 | 17.78° C | 30% | 1032.5 hPa | - | - | - | - |
| 1777716719 | 18.33° C | 30% | 1032.4 hPa | - | - | - | - |
| 1777715819 | 18.33° C | 28% | 1032.5 hPa | - | - | - | - |
| 1777714919 | 17.78° C | 29% | 1032.5 hPa | - | - | - | - |
| 1777714019 | 17.78° C | 29% | 1032.6 hPa | - | - | - | - |
| 1777713119 | 17.22° C | 29% | 1032.7 hPa | - | - | - | - |
| 1777712218 | 16.67° C | 30% | 1032.9 hPa | - | - | - | - |
| 1777711318 | 16.67° C | 29% | 1032.8 hPa | - | - | - | - |
| 1777710418 | 16.67° C | 29% | 1032.9 hPa | - | - | - | - |
| 1777709518 | 16.11° C | 29% | 1033.1 hPa | - | - | - | - |
| 1777708618 | 15.56° C | 30% | 1033.1 hPa | - | - | - | - |
| 1777707717 | 15° C | 29% | 1033.1 hPa | - | - | - | - |
| 1777706817 | 15° C | 29% | 1033 hPa | - | - | - | - |
| 1777705917 | 14.44° C | 31% | 1033.1 hPa | - | - | - | - |
| 1777705017 | 14.44° C | 31% | 1033.1 hPa | - | - | - | - |
* Rain since midnight (hover to see other rain measurements)
** Current wind speed in m/s (hover to see current wind gust speed)